Fidelity, IL (62030)

6:37 PM CST on December 04, 2016 (GMT -0600)
North Jerseyville | | Change Station

Elev 558 ft 39.15 °N, 90.32 °W | Updated 33 seconds ago

Overcast
Overcast
36.7 °F
Feels Like 29 °F
N
10.3
Wind Variable Wind from WNW
Gusts 12.3 mph

Today
High -- | Low -- °F
--% Chance of Precip.
Yesterday
High -- | Low -- °F
Precip. -- in
Pressure 29.98 in
Visibility 10.0 miles
Clouds Overcast 1300 ft
Windchill 29 °F
Dew Point 33 °F
Humidity 88%
Rainfall 0.43 in
Snow Depth Not available.
7:04 AM 4:37 PM
Waxing Crescent, 26% visible
METAR KALN 042345Z 30010KT 10SM OVC013 03/02 A2998
Pressure 29.98 in
Visibility 10.0 miles
Clouds Overcast 1300 ft
Windchill 29 °F
Dew Point 33 °F
Humidity 88%
Rainfall 0.43 in
Snow Depth Not available.
7:04 AM 4:37 PM
Waxing Crescent, 26% visible
METAR KALN 042345Z 30010KT 10SM OVC013 03/02 A2998

10-Day Weather Forecast

Almanac

Astronomy

Dec. 04, 2016 Rise Set
Actual Time
Civil Twilight
Nautical Twilight
Astronomical Twilight
Moon
Length of Visible Light
Length of Day
Tomorrow will be .
, % of the Moon is Illuminated

Today's Extremes

State Highs State Lows

Community

WunderPhotos

Upload Photos

1,955,725 photos uploaded!

WunderBlog® & News

Nearby

Air Quality

  Air Quality AQ Index Pollutant
Not available.

Snow Depth

Station Depth Elevation

Earthquake Activity

City Distance Mag. Time & Date
Minimum magnitude displayed is 2.5.

Coastal Water Temperatures

Place Temperature

Stations

Nearby Weather Stations

Station Location Temp. Windchill Dew Point Humidity Wind Precip. Elev Updated Type
                   

Watches & Warnings

There are currently no watches in effect.